Time;durP1;ratioP1;P1;durP2;ratioP2;P2;SDS_P1;SDS_P2;PMS_P1;PMS_P2;Temp;Humidity;BMP_temperature;BMP_pressure;BME280_temperature;BME280_humidity;BME280_pressure;Samples;Min_cycle;Max_cycle;Signal;HPM_P1;HPM_P2
2022/03/21 00:00:55;;;;;;;26.00;11.38;;;;;;;5.50;100.00;102382.22;5084548;28;20048;-92
2022/03/21 00:03:24;;;;;;;24.77;9.85;;;;;;;5.59;100.00;102393.56;5074124;28;20139;-92
2022/03/21 00:05:52;;;;;;;25.02;9.75;;;;;;;5.61;100.00;102390.13;5074089;28;20048;-92
2022/03/21 00:08:20;;;;;;;20.50;9.63;;;;;;;5.42;100.00;102376.09;5073931;28;20041;-91
2022/03/21 00:10:47;;;;;;;24.00;9.05;;;;;;;5.50;100.00;102377.00;5074840;28;20048;-91
2022/03/21 00:13:14;;;;;;;19.17;6.97;;;;;;;5.61;100.00;102382.34;5078058;28;20533;-92
2022/03/21 00:15:45;;;;;;;21.23;8.90;;;;;;;5.46;100.00;102361.41;5084586;28;20063;-92
2022/03/21 00:18:13;;;;;;;23.85;8.77;;;;;;;5.31;100.00;102346.53;5074020;28;20056;-91
2022/03/21 00:20:42;;;;;;;28.70;10.68;;;;;;;5.32;100.00;102359.53;5056144;28;20487;-92
2022/03/21 00:23:09;;;;;;;19.48;10.18;;;;;;;5.32;100.00;102358.66;5070902;28;20048;-91
2022/03/21 00:25:37;;;;;;;25.58;10.60;;;;;;;5.33;100.00;102374.28;5073754;28;20048;-91
2022/03/21 00:28:07;;;;;;;21.10;9.25;;;;;;;5.27;100.00;102363.78;5075077;28;20045;-92
2022/03/21 00:30:36;;;;;;;21.30;9.68;;;;;;;5.03;100.00;102348.84;5074804;28;20048;-92
2022/03/21 00:33:04;;;;;;;19.92;9.25;;;;;;;5.09;100.00;102356.69;5074589;28;20045;-91
2022/03/21 00:35:31;;;;;;;28.60;9.25;;;;;;;4.97;100.00;102338.38;5073437;28;20083;-92
2022/03/21 00:37:58;;;;;;;24.45;10.65;;;;;;;5.22;100.00;102375.84;5073617;28;20041;-91
2022/03/21 00:40:25;;;;;;;23.55;8.88;;;;;;;5.28;100.00;102369.88;5073754;28;20060;-91
2022/03/21 00:42:52;;;;;;;25.85;10.57;;;;;;;5.19;100.00;102354.19;5072236;28;20395;-91
2022/03/21 00:45:24;;;;;;;22.65;10.48;;;;;;;5.22;100.00;102360.28;5073313;28;20394;-91
2022/03/21 00:47:53;;;;;;;21.23;9.45;;;;;;;5.08;100.00;102339.38;5073015;28;20404;-91
2022/03/21 00:50:22;;;;;;;21.10;9.75;;;;;;;5.15;100.00;102350.69;5073052;28;20553;-92
2022/03/21 00:52:54;;;;;;;22.75;9.90;;;;;;;4.88;100.00;102339.13;5073416;28;20048;-91
2022/03/21 00:55:29;;;;;;;28.08;10.65;;;;;;;4.87;100.00;102350.38;5081118;28;20055;-91
2022/03/21 00:57:58;;;;;;;26.33;12.23;;;;;;;4.85;100.00;102357.28;5093705;28;20071;-91
2022/03/21 01:00:28;;;;;;;23.05;10.25;;;;;;;4.82;100.00;102348.59;5093595;28;20044;-91
2022/03/21 01:02:56;;;;;;;23.30;9.95;;;;;;;4.82;100.00;102339.09;5073626;28;20049;-91
2022/03/21 01:05:24;;;;;;;27.35;10.18;;;;;;;5.00;100.00;102350.53;5077961;28;20081;-91
2022/03/21 01:07:51;;;;;;;19.90;9.10;;;;;;;4.98;100.00;102340.13;5093638;28;20040;-91
2022/03/21 01:10:21;;;;;;;20.08;8.73;;;;;;;5.08;100.00;102348.88;5092159;28;20131;-91
2022/03/21 01:12:49;;;;;;;22.42;9.88;;;;;;;5.09;100.00;102346.28;5075134;28;20106;-91
2022/03/21 01:15:17;;;;;;;23.15;9.07;;;;;;;5.04;100.00;102337.59;5075978;28;20066;-91
2022/03/21 01:17:45;;;;;;;20.70;8.68;;;;;;;4.97;100.00;102332.31;5073739;28;20035;-91
2022/03/21 01:20:14;;;;;;;23.48;9.23;;;;;;;5.03;100.00;102337.56;5069575;28;20482;-90
2022/03/21 01:22:42;;;;;;;20.13;8.85;;;;;;;4.77;100.00;102307.00;5071395;28;20049;-91
2022/03/21 01:25:11;;;;;;;21.38;9.25;;;;;;;4.90;100.00;102326.19;5075430;28;20099;-91
2022/03/21 01:27:39;;;;;;;21.15;9.20;;;;;;;4.73;100.00;102326.00;5092094;28;20071;-91
2022/03/21 01:30:08;;;;;;;20.52;9.50;;;;;;;4.55;100.00;102295.47;5073978;28;20580;-91
2022/03/21 01:32:36;;;;;;;32.00;11.48;;;;;;;4.65;100.00;102312.91;5072199;28;20140;-91
2022/03/21 01:35:04;;;;;;;19.60;9.60;;;;;;;4.39;100.00;102284.03;5073263;28;20052;-92
2022/03/21 01:37:31;;;;;;;22.50;9.60;;;;;;;4.58;100.00;102287.75;5082011;28;20044;-91
2022/03/21 01:39:58;;;;;;;20.05;9.10;;;;;;;4.72;100.00;102339.81;5083712;28;20500;-91
2022/03/21 01:42:25;;;;;;;19.27;8.90;;;;;;;4.30;100.00;102287.41;5069484;28;20063;-91
2022/03/21 01:44:53;;;;;;;23.08;9.60;;;;;;;4.63;100.00;102326.72;5053749;28;20147;-91
2022/03/21 01:47:20;;;;;;;22.20;9.85;;;;;;;4.44;100.00;102312.66;5062812;28;20401;-90
2022/03/21 01:49:47;;;;;;;22.92;9.15;;;;;;;4.35;100.00;102303.03;5052272;28;20088;-91
2022/03/21 01:52:14;;;;;;;23.40;9.70;;;;;;;4.49;100.00;102301.47;5060968;28;20052;-91
2022/03/21 01:57:27;;;;;;;22.77;9.90;;;;;;;4.42;100.00;102291.88;5071091;28;20055;-91
2022/03/21 01:59:55;;;;;;;25.35;11.13;;;;;;;4.37;100.00;102298.72;5063081;28;20044;-91
2022/03/21 02:02:22;;;;;;;23.85;9.65;;;;;;;4.28;100.00;102309.84;5080878;28;20083;-91
2022/03/21 02:04:49;;;;;;;23.17;10.20;;;;;;;4.43;100.00;102296.22;5072856;28;20406;-91
2022/03/21 02:07:17;;;;;;;29.05;11.43;;;;;;;4.13;100.00;102242.25;5074614;28;20047;-91
2022/03/21 02:09:45;;;;;;;24.63;10.90;;;;;;;4.04;100.00;102245.59;5072144;28;20049;-91
2022/03/21 02:12:13;;;;;;;28.60;11.65;;;;;;;4.08;100.00;102243.91;5072293;28;20052;-91
2022/03/21 02:14:41;;;;;;;25.23;10.52;;;;;;;4.30;100.00;102271.88;5071836;28;20052;-91
2022/03/21 02:17:10;;;;;;;26.08;10.35;;;;;;;4.07;100.00;102253.41;5071752;28;20123;-91
2022/03/21 02:19:38;;;;;;;24.75;10.18;;;;;;;3.60;100.00;102205.22;5071915;28;20075;-91
2022/03/21 02:22:33;;;;;;;19.95;9.50;;;;;;;4.10;100.00;102279.34;5078664;28;20044;-90
2022/03/21 02:25:02;;;;;;;18.85;8.55;;;;;;;4.30;100.00;102287.41;5067713;28;20071;-91
2022/03/21 02:27:31;;;;;;;25.42;10.07;;;;;;;4.27;100.00;102274.41;5080075;28;20044;-91
2022/03/21 02:29:59;;;;;;;19.48;9.07;;;;;;;4.29;100.00;102266.66;5091977;28;20052;-90
2022/03/21 02:32:27;;;;;;;24.38;10.75;;;;;;;4.13;100.00;102282.00;5079835;28;20071;-90
2022/03/21 02:34:56;;;;;;;22.98;10.38;;;;;;;4.06;100.00;102271.53;5072152;28;20049;-90
2022/03/21 02:37:25;;;;;;;26.35;13.23;;;;;;;3.89;100.00;102266.94;5070856;28;20412;-88
2022/03/21 02:39:54;;;;;;;27.35;12.10;;;;;;;3.90;100.00;102270.44;5065805;28;20055;-91
2022/03/21 02:42:21;;;;;;;21.48;10.55;;;;;;;4.10;100.00;102273.31;5062556;28;20054;-91
2022/03/21 02:44:48;;;;;;;22.42;10.38;;;;;;;3.92;100.00;102233.31;5072902;28;20057;-91
2022/03/21 02:47:14;;;;;;;23.13;11.27;;;;;;;3.91;100.00;102251.44;5086491;28;20049;-91
2022/03/21 02:49:41;;;;;;;22.60;9.75;;;;;;;3.87;100.00;102234.97;5075674;28;20135;-91
2022/03/21 02:52:10;;;;;;;26.88;11.30;;;;;;;4.14;100.00;102263.00;5075278;28;20127;-91
2022/03/21 02:54:37;;;;;;;25.67;12.18;;;;;;;3.72;100.00;102233.03;5075641;28;20057;-91
2022/03/21 02:57:04;;;;;;;20.67;10.02;;;;;;;3.81;100.00;102229.72;5076703;28;20135;-91
2022/03/21 02:59:31;;;;;;;21.13;9.85;;;;;;;3.56;100.00;102199.97;5076060;28;20048;-91
2022/03/21 03:01:57;;;;;;;23.10;11.10;;;;;;;3.68;100.00;102239.00;5075953;28;20072;-91
2022/03/21 03:04:25;;;;;;;22.17;9.40;;;;;;;4.01;100.00;102253.31;5075505;28;20083;-91
2022/03/21 03:06:52;;;;;;;23.48;11.55;;;;;;;3.94;100.00;102254.06;5075564;28;20082;-91
2022/03/21 03:09:20;;;;;;;23.60;11.00;;;;;;;3.99;100.00;102248.09;5076295;28;20044;-92
2022/03/21 03:11:47;;;;;;;26.90;11.48;;;;;;;3.90;100.00;102241.94;5074910;28;20055;-92
2022/03/21 03:14:14;;;;;;;23.30;11.50;;;;;;;3.94;100.00;102254.06;5060484;28;20135;-91
2022/03/21 03:16:40;;;;;;;24.67;11.10;;;;;;;3.39;100.00;102174.69;5074950;28;20045;-91
2022/03/21 03:19:08;;;;;;;25.65;12.35;;;;;;;3.60;100.00;102212.13;5059113;28;20049;-92
2022/03/21 03:21:41;;;;;;;23.95;10.45;;;;;;;3.60;100.00;102210.41;5074658;28;20132;-91
2022/03/21 03:24:12;;;;;;;28.23;13.23;;;;;;;3.22;100.00;102182.22;5075955;28;20106;-92
2022/03/21 03:26:39;;;;;;;24.00;11.10;;;;;;;3.72;100.00;102250.28;5075688;28;20048;-92
2022/03/21 03:29:06;;;;;;;27.45;10.98;;;;;;;3.54;100.00;102245.69;5075175;28;20050;-92
2022/03/21 03:31:35;;;;;;;19.33;11.02;;;;;;;3.66;100.00;102243.28;5073588;28;20128;-92
2022/03/21 03:34:03;;;;;;;24.55;11.50;;;;;;;3.65;100.00;102238.09;5076362;28;20479;-91
2022/03/21 03:36:31;;;;;;;28.15;11.32;;;;;;;3.84;100.00;102247.88;5075732;28;20044;-91
2022/03/21 03:38:57;;;;;;;23.52;10.73;;;;;;;3.88;100.00;102248.78;5075183;28;20048;-91
2022/03/21 03:41:24;;;;;;;30.55;14.90;;;;;;;3.63;100.00;102230.31;5073975;28;20052;-91
2022/03/21 03:43:52;;;;;;;25.33;11.75;;;;;;;3.67;100.00;102229.50;5074824;28;20052;-91
2022/03/21 03:46:19;;;;;;;27.73;11.95;;;;;;;3.84;100.00;102234.91;5075584;28;20132;-91
2022/03/21 03:48:47;;;;;;;22.23;9.82;;;;;;;3.78;100.00;102248.66;5071213;28;20045;-91
2022/03/21 03:51:14;;;;;;;25.67;11.35;;;;;;;3.70;100.00;102249.41;5060326;28;20207;-91
2022/03/21 03:53:42;;;;;;;23.90;10.48;;;;;;;3.67;100.00;102242.47;5088062;28;20052;-91
2022/03/21 03:56:09;;;;;;;29.05;12.77;;;;;;;3.33;100.00;102249.69;5094439;28;20102;-91
2022/03/21 03:58:37;;;;;;;17.98;9.50;;;;;;;3.79;100.00;102250.41;5078491;28;20040;-91
2022/03/21 04:01:05;;;;;;;18.13;10.20;;;;;;;3.71;100.00;102243.38;5074050;28;20056;-90
2022/03/21 04:03:45;;;;;;;20.27;10.13;;;;;;;3.86;100.00;102243.63;5074389;28;20060;-91
2022/03/21 04:06:12;;;;;;;18.23;9.73;;;;;;;3.98;100.00;102236.00;5074161;28;20139;-91
2022/03/21 04:08:39;;;;;;;20.02;9.13;;;;;;;3.71;100.00;102217.47;5073872;28;20158;-91
2022/03/21 04:11:06;;;;;;;17.23;8.95;;;;;;;4.06;100.00;102254.25;5074511;28;20052;-91
2022/03/21 04:13:33;;;;;;;18.08;10.30;;;;;;;3.99;100.00;102250.69;5074678;28;20087;-92
2022/03/21 04:15:59;;;;;;;22.17;9.20;;;;;;;3.72;100.00;102196.78;5092876;28;20511;-91
2022/03/21 04:18:27;;;;;;;15.50;9.15;;;;;;;3.95;100.00;102220.41;5073978;28;20079;-91
2022/03/21 04:21:14;;;;;;;16.67;9.77;;;;;;;3.94;100.00;102186.69;5054975;28;20052;-91
2022/03/21 04:23:41;;;;;;;14.70;8.07;;;;;;;3.89;100.00;102180.56;5073616;28;20143;-91
2022/03/21 04:26:09;;;;;;;18.38;8.80;;;;;;;4.40;100.00;102243.44;5077087;28;20053;-91
2022/03/21 04:28:35;;;;;;;18.20;10.93;;;;;;;4.22;100.00;102226.81;5094207;28;20050;-91
2022/03/21 04:31:02;;;;;;;19.38;10.77;;;;;;;4.33;100.00;102238.16;5094587;28;20397;-91
2022/03/21 04:33:30;;;;;;;21.27;11.32;;;;;;;4.07;100.00;102213.63;5069269;28;20053;-91
2022/03/21 04:35:56;;;;;;;21.38;10.40;;;;;;;4.03;100.00;102224.81;5053739;28;20059;-91
2022/03/21 04:38:23;;;;;;;16.63;8.90;;;;;;;4.11;100.00;102212.84;5053723;28;20132;-90
2022/03/21 04:40:51;;;;;;;16.05;9.48;;;;;;;4.22;100.00;102244.09;5054829;28;20455;-91
2022/03/21 04:43:19;;;;;;;19.30;9.32;;;;;;;4.25;100.00;102219.06;5067860;28;20060;-91
2022/03/21 04:45:47;;;;;;;17.65;9.32;;;;;;;4.46;100.00;102246.09;5088185;28;20070;-91
2022/03/21 04:48:14;;;;;;;21.05;9.82;;;;;;;3.94;100.00;102166.81;5073868;28;20049;-91
2022/03/21 04:50:43;;;;;;;20.33;9.27;;;;;;;4.35;100.00;102239.06;5055194;28;20454;-92
2022/03/21 04:53:10;;;;;;;16.55;8.93;;;;;;;4.48;100.00;102239.19;5070776;28;20144;-91
2022/03/21 04:55:41;;;;;;;17.52;8.73;;;;;;;4.51;100.00;102234.06;5088724;28;20048;-91
2022/03/21 04:58:09;;;;;;;18.45;9.60;;;;;;;4.07;100.00;102213.63;5073940;28;20466;-91
2022/03/21 05:00:38;;;;;;;25.15;13.30;;;;;;;4.10;100.00;102243.06;5074250;28;20048;-91
2022/03/21 05:03:08;;;;;;;26.67;13.05;;;;;;;3.77;100.00;102233.97;5067153;28;20098;-91
2022/03/21 05:05:42;;;;;;;19.35;10.70;;;;;;;3.79;100.00;102245.22;5058869;28;20094;-91
2022/03/21 05:08:09;;;;;;;28.17;13.20;;;;;;;3.85;100.00;102231.50;5073947;28;20049;-91
2022/03/21 05:10:37;;;;;;;18.42;9.30;;;;;;;3.94;100.00;102246.31;5074072;28;20127;-91
2022/03/21 05:13:06;;;;;;;17.70;10.02;;;;;;;4.21;100.00;102258.75;5073622;28;20123;-91
2022/03/21 05:15:32;;;;;;;22.65;13.68;;;;;;;3.94;100.00;102243.72;5073204;28;20090;-91
2022/03/21 05:17:59;;;;;;;20.17;10.57;;;;;;;4.08;100.00;102249.09;5069626;28;20044;-91
2022/03/21 05:20:27;;;;;;;18.17;11.05;;;;;;;4.23;100.00;102253.59;5054242;28;20059;-90
2022/03/21 05:31:11;;;;;;;21.70;10.93;;;;;;;4.09;100.00;102258.59;5073943;28;20108;-90
2022/03/21 05:36:27;;;;;;;23.13;11.27;;;;;;;4.13;100.00;102245.69;5074304;28;20053;-91
2022/03/21 05:38:55;;;;;;;26.92;13.52;;;;;;;4.12;100.00;102258.63;5072179;28;20080;-91
2022/03/21 05:41:22;;;;;;;24.20;12.25;;;;;;;4.49;100.00;102249.59;5072172;28;20057;-89
2022/03/21 05:43:52;;;;;;;25.02;12.63;;;;;;;4.57;100.00;102255.75;5072240;28;20051;-91
2022/03/21 05:46:19;;;;;;;24.55;11.45;;;;;;;4.59;100.00;102265.28;5071294;28;20467;-91
2022/03/21 05:48:59;;;;;;;29.23;13.75;;;;;;;4.64;100.00;102261.91;5063797;28;20379;-90
2022/03/21 05:51:28;;;;;;;21.77;11.85;;;;;;;4.34;100.00;102250.28;5060979;28;20106;-90
2022/03/21 05:54:00;;;;;;;27.92;12.45;;;;;;;4.49;100.00;102251.34;5061416;28;20382;-90
2022/03/21 05:56:28;;;;;;;22.05;11.95;;;;;;;4.19;100.00;102263.06;5061219;28;20063;-89
2022/03/21 05:58:56;;;;;;;27.10;13.25;;;;;;;4.46;100.00;102251.28;5065234;28;20193;-90
2022/03/21 06:01:23;;;;;;;23.48;13.68;;;;;;;4.37;100.00;102236.47;5063272;28;20483;-90
2022/03/21 06:03:55;;;;;;;22.60;12.65;;;;;;;4.35;100.00;102236.47;5063258;28;20053;-91
2022/03/21 06:06:22;;;;;;;21.90;12.13;;;;;;;4.32;100.00;102232.97;5060052;28;20093;-91
2022/03/21 06:08:51;;;;;;;29.10;14.15;;;;;;;4.36;100.00;102235.63;5068187;28;20079;-91
2022/03/21 06:11:18;;;;;;;25.35;11.80;;;;;;;4.19;100.00;102217.25;5063678;28;20478;-91
2022/03/21 06:13:45;;;;;;;26.73;14.13;;;;;;;3.93;100.00;102219.53;5068563;28;20045;-91
2022/03/21 06:16:12;;;;;;;20.42;11.85;;;;;;;4.13;100.00;102221.50;5062257;28;20060;-91
2022/03/21 06:18:40;;;;;;;31.92;14.73;;;;;;;3.96;100.00;102245.47;5061017;28;20051;-91
2022/03/21 06:21:09;;;;;;;30.25;14.90;;;;;;;3.69;100.00;102216.59;5057294;28;20055;-91
2022/03/21 06:23:37;;;;;;;30.05;14.75;;;;;;;3.90;100.00;102235.03;5066091;28;20041;-90
2022/03/21 06:26:07;;;;;;;26.23;13.63;;;;;;;3.75;100.00;102219.25;5057225;28;20389;-90
2022/03/21 06:28:35;;;;;;;33.72;12.77;;;;;;;3.83;100.00;102228.00;5078621;28;20045;-90
2022/03/21 06:31:03;;;;;;;29.00;15.10;;;;;;;3.87;100.00;102237.56;5063597;28;20053;-91
2022/03/21 06:33:31;;;;;;;34.63;16.20;;;;;;;3.69;100.00;102238.16;5065441;28;21343;-91
2022/03/21 06:36:00;;;;;;;30.33;13.82;;;;;;;3.50;100.00;102203.34;5068148;28;20052;-92
2022/03/21 06:38:27;;;;;;;25.00;12.15;;;;;;;3.62;100.00;102192.31;5064803;28;20036;-92
2022/03/21 06:40:55;;;;;;;34.22;17.52;;;;;;;3.66;100.00;102190.63;5065267;28;20501;-90
2022/03/21 06:43:22;;;;;;;24.77;14.50;;;;;;;3.53;100.00;102189.59;5057487;28;20539;-91
2022/03/21 06:45:54;;;;;;;32.05;15.85;;;;;;;3.56;100.00;102210.31;5062642;28;20482;-90
2022/03/21 06:48:27;;;;;;;34.95;15.15;;;;;;;3.74;100.00;102225.28;5073171;28;20049;-90
2022/03/21 06:50:55;;;;;;;;;;;;;;;4.13;100.00;102244.84;5061991;28;20040;-89
2022/03/21 06:53:23;;;;;;;28.63;13.75;;;;;;;3.69;100.00;102193.28;5057794;28;19925;-89
2022/03/21 06:55:49;;;;;;;35.58;15.95;;;;;;;3.71;100.00;102196.75;5060313;28;20088;-90
2022/03/21 06:58:17;;;;;;;39.10;18.45;;;;;;;3.89;100.00;102228.09;5063132;28;20506;-89
2022/03/21 07:00:46;;;;;;;37.58;18.45;;;;;;;3.81;100.00;102234.91;5072379;28;20043;-88
2022/03/21 07:03:17;;;;;;;27.45;15.88;;;;;;;3.79;100.00;102246.97;5067343;28;20062;-87
2022/03/21 07:05:45;;;;;;;33.35;16.42;;;;;;;3.85;100.00;102244.44;5066450;28;20094;-88
2022/03/21 07:08:12;;;;;;;22.08;11.93;;;;;;;3.98;100.00;102238.59;5064010;28;20127;-89
2022/03/21 07:10:44;;;;;;;23.90;13.35;;;;;;;4.08;100.00;102226.63;5057701;28;20487;-89
2022/03/21 07:13:12;;;;;;;26.27;13.52;;;;;;;3.89;100.00;102225.50;5067673;28;20051;-87
2022/03/21 07:15:38;;;;;;;26.27;12.60;;;;;;;4.26;100.00;102243.28;5067632;28;20090;-89
2022/03/21 07:18:06;;;;;;;30.10;14.48;;;;;;;4.03;100.00;102236.06;5064392;28;20056;-90
2022/03/21 07:20:32;;;;;;;23.83;12.43;;;;;;;4.61;100.00;102240.25;5069899;28;20056;-91
2022/03/21 07:23:00;;;;;;;24.50;11.50;;;;;;;5.03;100.00;102245.00;5060951;28;20063;-91
2022/03/21 07:25:27;;;;;;;27.20;13.48;;;;;;;4.98;100.00;102238.03;5063710;28;20055;-91
2022/03/21 07:27:54;;;;;;;26.25;13.20;;;;;;;5.13;100.00;102238.16;5059109;28;20040;-91
2022/03/21 07:30:21;;;;;;;21.73;10.68;;;;;;;5.12;100.00;102193.16;5063615;28;20131;-91
2022/03/21 07:32:49;;;;;;;31.00;15.40;;;;;;;5.41;100.00;102228.88;5066711;28;20061;-91
2022/03/21 07:35:16;;;;;;;25.73;11.77;;;;;;;5.24;100.00;102202.78;5066298;28;20153;-91
2022/03/21 07:37:47;;;;;;;21.45;11.82;;;;;;;5.18;100.00;102222.63;5068641;28;20412;-90
2022/03/21 07:40:15;;;;;;;24.83;11.90;;;;;;;5.30;100.00;102235.72;5062979;28;20052;-90
2022/03/21 07:42:43;;;;;;;19.10;10.27;;;;;;;5.31;100.00;102221.84;5063740;28;20451;-91
2022/03/21 07:47:57;;;;;;;20.23;11.32;;;;;;;5.94;100.00;102211.03;5063833;28;20044;-91
2022/03/21 07:50:24;;;;;;;22.02;11.43;;;;;;;5.90;100.00;102225.75;5065463;28;20041;-91
2022/03/21 07:52:54;;;;;;;22.30;10.85;;;;;;;6.27;100.00;102218.16;5067522;28;20045;-89
2022/03/21 07:55:22;;;;;;;25.52;12.38;;;;;;;6.52;100.00;102219.09;5070523;28;20057;-91
2022/03/21 07:57:49;;;;;;;22.63;11.23;;;;;;;6.33;100.00;102222.50;5073270;28;20045;-91
2022/03/21 08:00:16;;;;;;;21.02;10.25;;;;;;;6.51;100.00;102212.13;5076327;28;20052;-91
2022/03/21 08:02:45;;;;;;;19.52;9.95;;;;;;;6.93;100.00;102215.72;5081143;28;20301;-90
2022/03/21 08:05:15;;;;;;;21.85;10.63;;;;;;;6.93;100.00;102223.53;5075380;28;20052;-88
2022/03/21 08:07:43;;;;;;;19.25;10.70;;;;;;;6.71;100.00;102206.13;5073763;28;20056;-89
2022/03/21 08:10:11;;;;;;;29.70;13.63;;;;;;;6.94;100.00;102200.94;5073409;28;20044;-90
2022/03/21 08:12:42;;;;;;;20.30;11.98;;;;;;;6.63;100.00;102196.56;5069951;28;20136;-89
2022/03/21 08:15:12;;;;;;;26.02;11.63;;;;;;;6.88;100.00;102209.63;5055758;28;20060;-89
2022/03/21 08:17:59;;;;;;;22.17;11.38;;;;;;;7.11;100.00;102217.47;5054596;28;20132;-89
2022/03/21 08:20:35;;;;;;;18.48;9.45;;;;;;;7.32;100.00;102210.53;5069374;28;20052;-89
2022/03/21 08:23:06;;;;;;;22.67;10.48;;;;;;;7.59;100.00;102207.00;5070411;28;20045;-91
2022/03/21 08:25:37;;;;;;;22.35;12.45;;;;;;;7.85;100.00;102214.78;5060146;28;20050;-88
2022/03/21 08:28:08;;;;;;;18.80;10.25;;;;;;;8.15;100.00;102203.38;5068519;28;20056;-89
2022/03/21 08:30:36;;;;;;;21.98;9.98;;;;;;;7.78;100.00;102202.63;5053004;28;20041;-90
2022/03/21 08:33:06;;;;;;;20.00;10.60;;;;;;;7.56;100.00;102215.72;5068367;28;20045;-89
2022/03/21 08:35:38;;;;;;;17.60;10.60;;;;;;;7.80;100.00;102208.69;5074238;28;20084;-90
2022/03/21 08:38:07;;;;;;;25.63;10.95;;;;;;;8.01;100.00;102207.78;5075375;28;20466;-89
2022/03/21 08:40:36;;;;;;;20.23;10.35;;;;;;;7.72;100.00;102205.22;5066647;28;20451;-92
2022/03/21 08:43:05;;;;;;;17.67;10.27;;;;;;;7.66;100.00;102211.34;5068735;28;20630;-91
2022/03/21 08:45:33;;;;;;;27.60;11.63;;;;;;;7.74;100.00;102200.91;5073044;28;20049;-91
2022/03/21 08:48:00;;;;;;;19.98;9.43;;;;;;;7.82;100.00;102221.75;5073462;28;20052;-90
2022/03/21 08:50:28;;;;;;;21.15;11.27;;;;;;;7.72;100.00;102215.66;5063529;28;20051;-90
2022/03/21 08:52:57;;;;;;;28.90;13.57;;;;;;;8.22;100.00;102222.50;5066388;28;20440;-90
2022/03/21 08:55:24;;;;;;;23.75;12.02;;;;;;;8.35;100.00;102215.47;5054164;28;20041;-90
2022/03/21 08:57:51;;;;;;;24.75;10.93;;;;;;;8.61;100.00;102223.19;5062511;28;20060;-90
2022/03/21 09:00:18;;;;;;;23.70;13.52;;;;;;;8.22;100.00;102206.84;5072180;28;20057;-91
2022/03/21 09:02:48;;;;;;;23.95;11.98;;;;;;;8.01;100.00;102210.38;5071462;28;20449;-92
2022/03/21 09:05:16;;;;;;;27.10;13.20;;;;;;;7.88;100.00;102203.47;5072779;28;20139;-90
2022/03/21 09:07:42;;;;;;;21.55;11.20;;;;;;;8.23;100.00;102212.91;5072071;28;20056;-90
2022/03/21 09:10:12;;;;;;;23.63;10.70;;;;;;;8.16;100.00;102180.75;5071662;28;20051;-91
2022/03/21 09:12:40;;;;;;;24.25;11.50;;;;;;;8.64;100.00;102219.69;5071261;28;20051;-91
2022/03/21 09:15:07;;;;;;;17.98;11.30;;;;;;;8.30;100.00;102204.19;5073652;28;20029;-91
2022/03/21 09:17:36;;;;;;;24.95;13.20;;;;;;;8.52;100.00;102213.66;5073681;28;20422;-91
2022/03/21 09:20:06;;;;;;;22.80;12.23;;;;;;;8.80;100.00;102197.84;5066650;28;20052;-90
2022/03/21 09:22:33;;;;;;;19.38;10.38;;;;;;;9.00;100.00;102204.69;5064253;28;20087;-90
2022/03/21 09:24:59;;;;;;;24.25;11.63;;;;;;;9.27;100.00;102203.56;5071588;28;20048;-90
2022/03/21 09:27:27;;;;;;;25.60;11.48;;;;;;;8.96;100.00;102146.34;5072260;28;20423;-92
2022/03/21 09:29:55;;;;;;;24.92;13.57;;;;;;;8.68;100.00;102208.38;5057444;28;20044;-91
2022/03/21 09:32:22;;;;;;;36.17;18.45;;;;;;;8.58;100.00;102183.19;5068003;28;20140;-91
2022/03/21 09:34:49;;;;;;;30.52;16.98;;;;;;;7.95;100.00;102200.84;5056820;28;20410;-91
2022/03/21 09:37:16;;;;;;;32.35;14.70;;;;;;;8.03;100.00;102205.16;5073668;28;20056;-92
2022/03/21 09:39:43;;;;;;;23.55;12.57;;;;;;;8.17;100.00;102213.81;5056356;28;20143;-91
2022/03/21 09:42:09;;;;;;;25.63;11.80;;;;;;;8.36;100.00;102199.81;5072226;28;20154;-92
2022/03/21 09:44:36;;;;;;;25.05;13.25;;;;;;;8.39;100.00;102198.03;5071426;28;20147;-91
2022/03/21 09:48:08;;;;;;;20.35;10.48;;;;;;;8.67;100.00;102197.03;5071607;28;20060;-91
2022/03/21 09:49:52;;;;;;;19.35;12.00;;;;;;;8.90;100.00;102203.84;5074921;28;20127;-93
2022/03/21 09:52:21;;;;;;;33.58;17.40;;;;;;;8.40;100.00;102208.47;5074366;28;20131;-93
2022/03/21 09:54:50;;;;;;;27.98;17.50;;;;;;;8.38;100.00;102204.16;5075968;28;20477;-93
2022/03/21 09:57:18;;;;;;;27.27;12.93;;;;;;;9.13;100.00;102208.91;5074610;28;20738;-90
2022/03/21 09:59:46;;;;;;;20.02;10.15;;;;;;;9.57;100.00;102198.94;5059553;28;20467;-91
2022/03/21 10:02:18;;;;;;;21.63;12.00;;;;;;;9.68;100.00;102189.22;5070241;28;20083;-88
2022/03/21 10:04:46;;;;;;;20.95;10.93;;;;;;;9.93;100.00;102209.88;5060300;28;20049;-92
2022/03/21 10:07:16;;;;;;;32.55;14.40;;;;;;;9.55;100.00;102203.31;5065534;28;20128;-92
2022/03/21 10:10:09;;;;;;;35.28;15.43;;;;;;;9.43;100.00;102186.84;5071675;28;20045;-90
2022/03/21 10:12:37;;;;;;;27.95;16.17;;;;;;;9.61;100.00;102203.25;5073538;28;20589;-92
2022/03/21 10:15:08;;;;;;;36.42;18.55;;;;;;;9.52;100.00;102192.88;5072398;28;20090;-91
2022/03/21 10:17:35;;;;;;;31.50;15.50;;;;;;;10.01;100.00;102195.84;5074372;28;20052;-91
2022/03/21 10:20:04;;;;;;;29.75;14.68;;;;;;;10.20;100.00;102185.16;5072893;28;20044;-91
2022/03/21 10:22:43;;;;;;;32.85;16.30;;;;;;;9.73;100.00;102186.56;5070096;28;20479;-91
2022/03/21 10:25:15;;;;;;;35.05;16.42;;;;;;;10.01;100.00;102184.50;5071668;28;20087;-91
2022/03/21 10:27:44;;;;;;;23.75;12.32;;;;;;;10.52;100.00;102196.97;5073180;28;20414;-91
2022/03/21 10:30:15;;;;;;;32.17;16.73;;;;;;;10.63;100.00;102193.28;5072052;28;20051;-92
2022/03/21 10:32:46;;;;;;;28.35;13.40;;;;;;;11.18;100.00;102188.09;5072954;28;20049;-92
2022/03/21 10:35:16;;;;;;;24.80;12.93;;;;;;;10.96;100.00;102193.69;5072507;28;20439;-92
2022/03/21 10:37:56;;;;;;;24.52;12.30;;;;;;;10.78;100.00;102175.63;5073416;28;20055;-92
2022/03/21 10:44:15;;;;;;;52.65;20.55;;;;;;;11.06;100.00;102181.28;5066325;28;20501;-92
2022/03/21 10:46:43;;;;;;;52.25;20.35;;;;;;;10.89;100.00;102172.81;5074353;28;20518;-92
2022/03/21 10:49:10;;;;;;;25.23;13.05;;;;;;;11.08;100.00;102170.78;5073343;28;20055;-92
2022/03/21 10:51:51;;;;;;;26.52;12.60;;;;;;;11.75;100.00;102184.44;5070766;28;20049;-91
2022/03/21 10:54:37;;;;;;;29.35;13.02;;;;;;;11.55;100.00;102184.81;5073222;28;20068;-92
2022/03/21 10:57:06;;;;;;;38.95;22.27;;;;;;;10.90;100.00;102151.00;5073549;28;20063;-92
2022/03/21 10:59:33;;;;;;;27.65;13.20;;;;;;;11.36;100.00;102139.69;5073123;28;20053;-92
2022/03/21 11:02:17;;;;;;;29.75;15.90;;;;;;;11.41;100.00;102148.34;5075945;28;20106;-92
2022/03/21 11:04:45;;;;;;;32.38;14.15;;;;;;;11.89;100.00;102169.28;5076804;28;20471;-91
2022/03/21 11:07:12;;;;;;;34.22;17.08;;;;;;;11.58;100.00;102150.66;5058180;28;20122;-92
2022/03/21 11:09:44;;;;;;;29.13;13.73;;;;;;;11.82;100.00;102175.53;5057883;28;20436;-92
2022/03/21 11:12:11;;;;;;;25.80;12.45;;;;;;;12.18;99.15;102165.19;5078331;28;20079;-92
2022/03/21 11:14:39;;;;;;;28.40;13.45;;;;;;;12.43;98.88;102181.31;5078785;28;20049;-92
2022/03/21 11:17:07;;;;;;;39.67;20.95;;;;;;;11.29;100.00;102175.66;5079151;28;20062;-93
2022/03/21 11:19:35;;;;;;;38.55;18.23;;;;;;;12.00;100.00;102170.84;5077120;28;20047;-94
2022/03/21 11:22:02;;;;;;;28.65;15.40;;;;;;;12.47;97.48;102174.22;5077616;28;20040;-92
2022/03/21 11:24:30;;;;;;;30.00;16.10;;;;;;;12.43;98.53;102147.16;5077275;28;20143;-93
2022/03/21 11:27:09;;;;;;;33.22;17.17;;;;;;;12.57;93.41;102172.22;5077199;28;20136;-93
2022/03/21 11:29:45;;;;;;;32.78;16.50;;;;;;;12.67;94.61;102148.34;5078570;28;20648;-92
2022/03/21 11:32:24;;;;;;;22.23;12.95;;;;;;;12.26;91.25;102175.56;5067346;28;20056;-93
2022/03/21 11:35:12;;;;;;;36.35;15.38;;;;;;;12.23;93.65;102181.72;5077194;28;20055;-93
2022/03/21 11:37:40;;;;;;;34.13;17.02;;;;;;;12.02;88.33;102163.81;5077154;28;20056;-93
2022/03/21 11:40:26;;;;;;;37.20;17.55;;;;;;;12.21;90.25;102180.03;5077366;28;20044;-93